Time;durP1;ratioP1;P1;durP2;ratioP2;P2;SDS_P1;SDS_P2;PMS_P1;PMS_P2;Temp;Humidity;BMP_temperature;BMP_pressure;BME280_temperature;BME280_humidity;BME280_pressure;Samples;Min_cycle;Max_cycle;Signal;HPM_P1;HPM_P2
2023/05/07 00:00:48;;;;;;;5.00;3.70;;;;;;;13.89;100.00;98051.28;5071750;28;20207;-86
2023/05/07 00:03:14;;;;;;;4.23;3.83;;;;;;;13.93;100.00;98055.38;5071967;28;20229;-87
2023/05/07 00:05:41;;;;;;;4.30;3.90;;;;;;;13.94;100.00;98051.75;5071829;28;20233;-87
2023/05/07 00:08:09;;;;;;;4.47;4.07;;;;;;;13.92;100.00;98051.00;5071675;28;20235;-86
2023/05/07 00:10:35;;;;;;;4.40;4.00;;;;;;;13.89;100.00;98051.28;5071740;28;20209;-87
2023/05/07 00:13:02;;;;;;;6.93;3.90;;;;;;;13.83;100.00;98057.09;5071449;28;20233;-85
2023/05/07 00:15:28;;;;;;;4.47;4.03;;;;;;;13.78;100.00;98053.97;5071652;28;20209;-86
2023/05/07 00:17:57;;;;;;;5.00;4.50;;;;;;;13.77;100.00;98062.91;5069506;28;20445;-85
2023/05/07 00:20:23;;;;;;;4.10;3.70;;;;;;;13.73;100.00;98061.47;5069324;28;20207;-85
2023/05/07 00:22:50;;;;;;;4.07;3.63;;;;;;;13.71;100.00;98055.47;5071001;28;20622;-85
2023/05/07 00:25:19;;;;;;;4.30;3.87;;;;;;;13.71;100.00;98052.81;5071310;28;20214;-85
2023/05/07 00:27:45;;;;;;;3.90;3.40;;;;;;;13.67;100.00;98040.75;5070657;28;20317;-85
2023/05/07 00:30:13;;;;;;;4.07;3.73;;;;;;;13.66;100.00;98039.06;5071243;28;20323;-85
2023/05/07 00:32:39;;;;;;;4.40;3.97;;;;;;;13.60;100.00;98045.72;5071158;28;20298;-86
2023/05/07 00:35:07;;;;;;;3.70;3.40;;;;;;;13.55;100.00;98044.41;5071210;28;20209;-87
2023/05/07 00:37:34;;;;;;;5.37;4.30;;;;;;;13.45;100.00;98048.81;5071113;28;20230;-88
2023/05/07 00:40:03;;;;;;;4.27;3.87;;;;;;;13.36;100.00;98046.88;5070917;28;20572;-86
2023/05/07 00:42:32;;;;;;;4.03;3.63;;;;;;;13.26;100.00;98038.00;5070905;28;20206;-86
2023/05/07 00:44:58;;;;;;;4.60;4.20;;;;;;;13.18;100.00;98038.63;5071302;28;20218;-86
2023/05/07 00:47:26;;;;;;;4.93;3.80;;;;;;;13.11;100.00;98041.88;5071068;28;20237;-86
2023/05/07 00:49:53;;;;;;;4.47;4.03;;;;;;;13.04;100.00;98036.25;5071003;28;20214;-86
2023/05/07 00:52:22;;;;;;;4.13;3.73;;;;;;;12.99;100.00;98037.56;5071127;28;20604;-86
2023/05/07 00:54:49;;;;;;;3.83;3.53;;;;;;;12.97;100.00;98034.19;5071059;28;20205;-86
2023/05/07 00:57:16;;;;;;;4.60;3.80;;;;;;;12.93;100.00;98038.03;5070928;28;20237;-86
2023/05/07 00:59:44;;;;;;;5.07;4.17;;;;;;;12.90;100.00;98028.50;5070131;28;20240;-86
2023/05/07 01:02:11;;;;;;;4.57;3.83;;;;;;;12.89;100.00;98036.59;5072668;28;20222;-86
2023/05/07 01:04:38;;;;;;;3.80;3.50;;;;;;;12.89;100.00;98031.28;5075193;28;20306;-86
2023/05/07 01:07:06;;;;;;;5.00;3.93;;;;;;;12.90;100.00;98035.63;5074973;28;20247;-86
2023/05/07 01:09:34;;;;;;;4.47;3.33;;;;;;;12.90;100.00;98032.97;5074711;28;20209;-86
2023/05/07 01:12:01;;;;;;;4.40;3.63;;;;;;;12.86;100.00;98032.38;5074796;28;20211;-86
2023/05/07 01:14:29;;;;;;;5.00;3.87;;;;;;;12.86;100.00;98039.47;5074687;28;20217;-86
2023/05/07 01:16:58;;;;;;;4.00;3.63;;;;;;;12.81;100.00;98039.84;5075037;28;20249;-86
2023/05/07 01:19:25;;;;;;;4.77;3.80;;;;;;;12.77;100.00;98026.97;5074633;28;20277;-86
2023/05/07 01:21:52;;;;;;;4.60;3.60;;;;;;;12.73;100.00;98030.81;5074662;28;20313;-86
2023/05/07 01:24:20;;;;;;;4.40;4.00;;;;;;;12.66;100.00;98033.09;5074639;28;20200;-86
2023/05/07 01:26:46;;;;;;;3.77;3.47;;;;;;;12.65;100.00;98039.38;5074387;28;20240;-86
2023/05/07 01:29:12;;;;;;;4.50;3.93;;;;;;;12.62;100.00;98031.69;5074472;28;20204;-86
2023/05/07 01:31:41;;;;;;;3.97;3.60;;;;;;;12.62;100.00;98038.78;5074695;28;20216;-86
2023/05/07 01:34:12;;;;;;;4.40;3.90;;;;;;;12.63;100.00;98033.34;5074681;28;20233;-86
2023/05/07 01:36:40;;;;;;;4.13;3.60;;;;;;;12.65;100.00;98031.41;5074952;28;20615;-86
2023/05/07 01:39:07;;;;;;;4.53;4.03;;;;;;;12.67;100.00;98033.94;5074529;28;20738;-86
2023/05/07 01:41:35;;;;;;;4.43;3.50;;;;;;;12.70;100.00;98031.03;5074427;28;20701;-86
2023/05/07 01:44:04;;;;;;;3.93;3.53;;;;;;;12.74;100.00;98035.16;5074575;28;20220;-86
2023/05/07 01:46:32;;;;;;;4.83;3.63;;;;;;;12.78;100.00;98031.31;5075098;28;20277;-86
2023/05/07 01:48:59;;;;;;;4.23;3.83;;;;;;;12.83;100.00;98031.78;5074427;28;20210;-86
2023/05/07 01:51:26;;;;;;;4.00;3.60;;;;;;;12.84;100.00;98014.91;5074086;28;20232;-86
2023/05/07 01:53:53;;;;;;;3.80;3.47;;;;;;;12.83;100.00;98019.34;5074053;28;20236;-86
2023/05/07 01:56:20;;;;;;;5.07;3.80;;;;;;;12.80;100.00;98021.41;5073958;28;20254;-86
2023/05/07 01:58:49;;;;;;;6.63;3.90;;;;;;;12.76;100.00;98012.84;5073849;28;20691;-86
2023/05/07 02:01:15;;;;;;;6.07;3.90;;;;;;;12.71;100.00;98025.63;5073770;28;20220;-86
2023/05/07 02:03:42;;;;;;;3.33;2.87;;;;;;;12.69;100.00;98021.41;5073821;28;20698;-86
2023/05/07 02:06:08;;;;;;;3.43;3.13;;;;;;;12.67;100.00;98020.69;5073726;28;20209;-86
2023/05/07 02:08:35;;;;;;;4.43;3.73;;;;;;;12.62;100.00;98012.25;5073736;28;20207;-86
2023/05/07 02:11:02;;;;;;;4.57;3.53;;;;;;;12.64;100.00;98020.91;5073495;28;20722;-86
2023/05/07 02:13:31;;;;;;;3.97;3.50;;;;;;;12.63;100.00;98025.41;5073370;28;20244;-86
2023/05/07 02:15:59;;;;;;;3.63;3.33;;;;;;;12.67;100.00;98026.00;5073807;28;20220;-86
2023/05/07 02:18:25;;;;;;;3.90;3.47;;;;;;;12.66;100.00;98024.31;5073615;28;20213;-86
2023/05/07 02:20:52;;;;;;;5.37;3.40;;;;;;;12.67;100.00;98031.31;5073173;28;20215;-86
2023/05/07 02:23:18;;;;;;;3.10;2.80;;;;;;;12.67;100.00;98026.00;5073351;28;20206;-86
2023/05/07 02:25:45;;;;;;;4.30;3.80;;;;;;;12.66;100.00;98025.13;5073679;28;20236;-86
2023/05/07 02:28:12;;;;;;;4.30;3.47;;;;;;;12.67;100.00;98026.00;5073534;28;20272;-86
2023/05/07 02:30:39;;;;;;;4.17;3.60;;;;;;;12.66;100.00;98029.63;5073265;28;20210;-86
2023/05/07 02:33:08;;;;;;;3.97;3.50;;;;;;;12.64;100.00;98031.53;5073177;28;20281;-86
2023/05/07 02:35:34;;;;;;;4.87;3.50;;;;;;;12.63;100.00;98027.19;5073222;28;20208;-86
2023/05/07 02:38:01;;;;;;;4.00;3.60;;;;;;;12.60;100.00;98024.81;5073425;28;20266;-86
2023/05/07 02:40:27;;;;;;;5.07;3.70;;;;;;;12.54;100.00;98027.94;5072998;28;20213;-86
2023/05/07 02:42:54;;;;;;;4.70;3.40;;;;;;;12.51;100.00;98026.38;5073227;28;20547;-86
2023/05/07 02:45:26;;;;;;;4.47;3.57;;;;;;;12.45;100.00;98020.69;5073063;28;20222;-86
2023/05/07 02:47:52;;;;;;;4.07;3.50;;;;;;;12.39;100.00;98032.63;5073066;28;20234;-86
2023/05/07 02:50:20;;;;;;;4.23;3.70;;;;;;;12.33;100.00;98021.66;5072870;28;20459;-86
2023/05/07 02:52:47;;;;;;;5.10;3.50;;;;;;;12.27;100.00;98027.41;5073073;28;20212;-86
2023/05/07 02:55:15;;;;;;;3.73;3.40;;;;;;;12.21;100.00;98030.53;5073024;28;20248;-87
2023/05/07 02:57:41;;;;;;;4.70;3.87;;;;;;;12.15;100.00;98025.72;5076554;22;20738;-76
2023/05/07 03:00:13;;;;;;;5.20;3.90;;;;;;;12.13;100.00;98025.00;5052320;28;20220;-76
2023/05/07 03:02:40;;;;;;;4.03;3.63;;;;;;;12.08;100.00;98021.84;5052884;28;20209;-76
2023/05/07 03:05:07;;;;;;;6.30;4.33;;;;;;;12.02;100.00;98022.31;5053212;28;20286;-76
2023/05/07 03:07:35;;;;;;;4.60;4.10;;;;;;;11.95;100.00;98010.53;5052951;28;20232;-77
2023/05/07 03:10:02;;;;;;;5.17;3.90;;;;;;;11.93;100.00;98017.75;5052560;28;20215;-76
2023/05/07 03:12:28;;;;;;;4.77;3.90;;;;;;;11.89;100.00;98016.28;5052782;28;20224;-76
2023/05/07 03:14:55;;;;;;;5.07;4.23;;;;;;;11.84;100.00;98010.47;5052622;28;20228;-76
2023/05/07 03:17:21;;;;;;;4.37;3.93;;;;;;;11.85;100.00;98004.22;5052757;28;20233;-76
2023/05/07 03:19:48;;;;;;;4.60;4.20;;;;;;;11.80;100.00;98001.13;5052509;28;20208;-76
2023/05/07 03:22:15;;;;;;;4.50;4.10;;;;;;;11.77;100.00;97998.69;5052505;28;20217;-76
2023/05/07 03:24:42;;;;;;;5.73;4.10;;;;;;;11.73;100.00;97998.06;5051642;28;20205;-76
2023/05/07 03:27:09;;;;;;;4.07;3.67;;;;;;;11.70;100.00;97997.47;5052403;28;20599;-76
2023/05/07 03:29:35;;;;;;;5.00;4.07;;;;;;;11.67;100.00;98000.34;5052341;28;20208;-76
2023/05/07 03:32:02;;;;;;;4.27;3.70;;;;;;;11.64;100.00;98006.72;5052293;28;20217;-76
2023/05/07 03:34:28;;;;;;;4.40;4.00;;;;;;;11.61;100.00;98001.66;5052282;28;20334;-76
2023/05/07 03:36:55;;;;;;;4.30;3.90;;;;;;;11.57;100.00;98004.63;5052300;28;20238;-76
2023/05/07 03:39:22;;;;;;;4.40;3.50;;;;;;;11.57;100.00;98005.44;5051928;28;20204;-77
2023/05/07 03:41:49;;;;;;;4.23;3.60;;;;;;;11.54;100.00;98004.81;5052126;28;20219;-76
2023/05/07 03:44:16;;;;;;;4.40;4.00;;;;;;;11.49;100.00;98007.81;5052025;28;20210;-77
2023/05/07 03:46:42;;;;;;;4.33;3.83;;;;;;;11.45;100.00;98001.09;5052312;28;20232;-77
2023/05/07 03:49:09;;;;;;;4.50;3.80;;;;;;;11.48;100.00;98010.56;5051700;28;20219;-77
2023/05/07 03:51:36;;;;;;;4.60;3.93;;;;;;;11.45;100.00;98008.19;5052188;28;20212;-77
2023/05/07 03:54:02;;;;;;;4.30;3.90;;;;;;;11.43;100.00;98002.16;5051817;28;20224;-77
2023/05/07 03:56:29;;;;;;;4.83;4.33;;;;;;;11.39;100.00;98006.84;5051673;28;20216;-76
2023/05/07 03:58:57;;;;;;;5.30;4.60;;;;;;;11.42;100.00;98011.03;5051829;28;20307;-77
2023/05/07 04:01:23;;;;;;;4.90;4.40;;;;;;;11.40;100.00;98012.97;5051560;28;20216;-77
2023/05/07 04:03:50;;;;;;;4.67;4.20;;;;;;;11.40;100.00;98015.59;5052042;28;20558;-77
2023/05/07 04:06:17;;;;;;;4.57;4.17;;;;;;;11.42;100.00;98013.69;5051759;28;20591;-77
2023/05/07 04:08:44;;;;;;;6.83;3.83;;;;;;;11.41;100.00;98010.22;5051620;28;20213;-76
2023/05/07 04:11:11;;;;;;;5.03;4.07;;;;;;;11.42;100.00;98013.69;5051302;28;20231;-77
2023/05/07 04:13:37;;;;;;;5.23;4.00;;;;;;;11.41;100.00;98012.00;5051435;28;20232;-77
2023/05/07 04:16:06;;;;;;;4.93;4.40;;;;;;;11.42;100.00;98011.03;5051693;28;20235;-76
2023/05/07 04:18:32;;;;;;;4.70;4.27;;;;;;;11.44;100.00;98019.72;5051551;28;20234;-77
2023/05/07 04:20:59;;;;;;;4.30;3.90;;;;;;;11.48;100.00;98015.88;5051297;28;20221;-77
2023/05/07 04:23:25;;;;;;;4.60;4.10;;;;;;;11.51;100.00;98024.47;5051359;28;20215;-79
2023/05/07 04:25:52;;;;;;;5.07;4.57;;;;;;;11.53;100.00;98019.03;5051286;28;20212;-77
2023/05/07 04:28:19;;;;;;;5.67;4.27;;;;;;;11.56;100.00;98037.34;5052023;28;20603;-77
2023/05/07 04:30:45;;;;;;;4.70;4.17;;;;;;;11.56;100.00;98034.69;5051311;28;20213;-77
2023/05/07 04:33:15;;;;;;;5.23;4.13;;;;;;;11.59;100.00;98037.13;5051514;28;20200;-76
2023/05/07 04:35:42;;;;;;;4.37;3.87;;;;;;;11.64;100.00;98038.50;5050967;28;20218;-79
2023/05/07 04:38:08;;;;;;;4.77;4.27;;;;;;;11.69;100.00;98025.72;5051067;28;20692;-77
2023/05/07 04:40:36;;;;;;;4.40;4.00;;;;;;;11.76;100.00;98026.97;5051151;28;20217;-78
2023/05/07 04:43:03;;;;;;;5.30;4.40;;;;;;;11.86;100.00;98032.41;5051388;28;20207;-77
2023/05/07 04:45:29;;;;;;;4.27;3.87;;;;;;;11.95;100.00;98039.66;5051326;28;20234;-76
2023/05/07 04:47:56;;;;;;;4.37;3.97;;;;;;;12.04;100.00;98036.31;5051191;28;20235;-77
2023/05/07 04:50:24;;;;;;;4.20;3.80;;;;;;;12.22;100.00;98045.50;5050855;28;20226;-78
2023/05/07 04:52:51;;;;;;;4.53;4.13;;;;;;;12.38;100.00;98043.34;5050996;28;20212;-76
2023/05/07 04:55:17;;;;;;;4.30;3.60;;;;;;;12.53;100.00;98050.13;5050914;28;20311;-76
2023/05/07 04:57:45;;;;;;;4.43;4.03;;;;;;;12.66;100.00;98042.88;5051419;28;20638;-76
2023/05/07 05:00:14;;;;;;;3.93;3.50;;;;;;;12.77;100.00;98048.19;5050766;28;20299;-76
2023/05/07 05:02:40;;;;;;;4.20;3.43;;;;;;;12.85;100.00;98054.53;5051112;28;20216;-76
2023/05/07 05:05:07;;;;;;;4.63;3.67;;;;;;;12.89;100.00;98050.69;5050972;28;20680;-76
2023/05/07 05:07:35;;;;;;;3.93;3.50;;;;;;;12.91;100.00;98055.88;5051083;28;20265;-76
2023/05/07 05:10:03;;;;;;;4.20;3.77;;;;;;;12.86;100.00;98052.75;5050879;28;20209;-76
2023/05/07 05:12:29;;;;;;;4.30;3.30;;;;;;;12.79;100.00;98057.72;5051071;28;20207;-77
2023/05/07 05:14:56;;;;;;;3.97;3.57;;;;;;;12.74;100.00;98053.72;5051026;28;20228;-76
2023/05/07 05:17:23;;;;;;;5.53;3.63;;;;;;;12.71;100.00;98065.41;5050879;28;20243;-76
2023/05/07 05:19:49;;;;;;;4.00;3.60;;;;;;;12.67;100.00;98057.81;5050574;28;20205;-76
2023/05/07 05:22:16;;;;;;;3.83;3.53;;;;;;;12.67;100.00;98071.94;5050744;28;20213;-79
2023/05/07 05:24:58;;;;;;;4.03;3.70;;;;;;;12.66;100.00;98074.69;5051384;28;20548;-75
2023/05/07 05:27:25;;;;;;;4.53;3.67;;;;;;;12.65;100.00;98080.97;5051235;28;20228;-78
2023/05/07 05:29:52;;;;;;;3.97;3.67;;;;;;;12.70;100.00;98078.78;5051040;28;20318;-76
2023/05/07 05:32:18;;;;;;;4.27;3.67;;;;;;;12.73;100.00;98068.81;5051167;28;20237;-78
2023/05/07 05:34:45;;;;;;;4.60;4.20;;;;;;;12.93;100.00;98062.75;5051053;28;20233;-79
2023/05/07 05:37:11;;;;;;;4.30;3.90;;;;;;;13.16;100.00;98060.94;5050889;28;20705;-76
2023/05/07 05:39:54;;;;;;;4.63;3.80;;;;;;;13.82;100.00;98055.41;5050626;28;20205;-77
2023/05/07 05:42:29;;;;;;;4.63;3.47;;;;;;;14.65;100.00;98049.97;5050642;28;20308;-76
2023/05/07 05:44:56;;;;;;;3.90;3.40;;;;;;;15.32;100.00;98044.84;5050366;28;20210;-76
2023/05/07 05:47:23;;;;;;;3.73;3.30;;;;;;;16.01;99.26;98049.97;5050527;28;20312;-76
2023/05/07 05:49:50;;;;;;;3.57;3.27;;;;;;;16.64;94.54;98052.81;5053875;28;20218;-76
2023/05/07 05:52:17;;;;;;;4.40;3.30;;;;;;;17.17;89.66;98040.53;5054372;28;20551;-76
2023/05/07 05:54:43;;;;;;;3.47;3.17;;;;;;;17.64;86.34;98039.41;5054139;28;20231;-76
2023/05/07 05:57:09;;;;;;;3.30;3.00;;;;;;;17.69;82.76;98038.94;5054089;28;20240;-76
2023/05/07 05:59:37;;;;;;;4.63;3.00;;;;;;;17.92;81.58;98035.66;5053822;28;20207;-76
2023/05/07 06:02:04;;;;;;;6.80;2.80;;;;;;;18.24;80.09;98032.41;5053883;28;20693;-76
2023/05/07 06:04:30;;;;;;;3.20;2.83;;;;;;;18.55;77.40;98021.13;5053971;28;20299;-76
2023/05/07 06:06:57;;;;;;;3.23;2.93;;;;;;;18.65;74.75;98016.50;5053907;28;20610;-77
2023/05/07 06:09:24;;;;;;;3.63;2.83;;;;;;;18.99;75.07;98022.69;5053507;28;20757;-77
2023/05/07 06:11:50;;;;;;;3.17;2.87;;;;;;;19.28;72.37;98015.16;5053820;28;20223;-78
2023/05/07 06:14:17;;;;;;;3.00;2.63;;;;;;;19.36;71.91;98027.72;5053667;28;20232;-76
2023/05/07 06:16:45;;;;;;;3.20;2.90;;;;;;;19.51;71.59;98034.97;5053883;28;20235;-76
2023/05/07 06:19:11;;;;;;;3.30;2.80;;;;;;;19.41;72.32;98036.97;5053395;28;20216;-77
2023/05/07 06:21:39;;;;;;;3.00;2.70;;;;;;;18.94;74.57;98043.75;5053825;28;20204;-76
2023/05/07 06:24:06;;;;;;;3.43;2.80;;;;;;;18.41;77.15;98050.31;5053624;28;20244;-76
2023/05/07 06:26:32;;;;;;;2.83;2.43;;;;;;;17.99;79.67;98063.47;5053615;28;20240;-76
2023/05/07 06:28:59;;;;;;;3.20;2.90;;;;;;;18.06;80.57;98064.53;5053375;28;20216;-76
2023/05/07 06:31:31;;;;;;;3.60;2.90;;;;;;;18.46;77.14;98054.19;5053480;28;20311;-76
2023/05/07 06:33:59;;;;;;;2.73;2.50;;;;;;;18.90;73.58;98044.25;5053630;28;20253;-76
2023/05/07 06:36:26;;;;;;;2.80;2.50;;;;;;;19.06;70.64;98036.28;5053364;28;20208;-77
2023/05/07 06:38:52;;;;;;;3.20;2.77;;;;;;;18.95;70.67;98044.63;5053367;28;20204;-76
2023/05/07 06:41:20;;;;;;;2.90;2.70;;;;;;;18.66;71.20;98038.75;5052932;28;20223;-77
2023/05/07 06:43:46;;;;;;;3.53;2.80;;;;;;;18.29;74.99;98051.53;5053295;28;20208;-77
2023/05/07 06:46:13;;;;;;;2.63;2.43;;;;;;;18.00;77.82;98061.63;5053294;28;20235;-77
2023/05/07 06:48:39;;;;;;;2.80;2.53;;;;;;;17.81;79.87;98073.31;5053545;28;20223;-79
2023/05/07 06:51:07;;;;;;;4.33;2.50;;;;;;;17.74;81.12;98071.41;5052658;28;20212;-86
2023/05/07 06:53:34;;;;;;;3.10;2.50;;;;;;;17.73;82.71;98075.09;5053755;28;20378;-78
2023/05/07 06:56:01;;;;;;;3.33;2.83;;;;;;;17.77;83.63;98071.94;5052895;28;20335;-79
2023/05/07 06:58:27;;;;;;;3.47;2.87;;;;;;;17.77;82.61;98065.75;5053098;28;20243;-80
2023/05/07 07:00:54;;;;;;;2.87;2.60;;;;;;;17.81;82.90;98057.28;5052690;28;20204;-82
2023/05/07 07:03:21;;;;;;;3.67;2.83;;;;;;;17.81;83.49;98059.94;5052698;28;20689;-80
2023/05/07 07:05:47;;;;;;;2.80;2.50;;;;;;;17.84;83.83;98062.31;5049948;28;20231;-80
2023/05/07 07:08:17;;;;;;;3.47;3.17;;;;;;;17.82;83.89;98072.34;5049715;28;20228;-80
2023/05/07 07:10:44;;;;;;;3.10;2.77;;;;;;;17.92;82.44;98067.75;5049660;28;20223;-81
2023/05/07 07:13:10;;;;;;;4.20;2.93;;;;;;;18.06;84.57;98067.22;5051866;28;20212;-82
2023/05/07 07:15:37;;;;;;;3.20;2.67;;;;;;;18.16;82.46;98067.97;5052480;28;20243;-81
2023/05/07 07:18:03;;;;;;;3.10;2.80;;;;;;;18.26;80.89;98052.66;5050716;28;20314;-80
2023/05/07 07:20:30;;;;;;;3.10;2.80;;;;;;;18.35;81.49;98054.44;5048143;28;20700;-80
2023/05/07 07:22:56;;;;;;;3.50;3.10;;;;;;;18.56;81.03;98052.25;5048180;28;20204;-80
2023/05/07 07:25:24;;;;;;;3.00;2.70;;;;;;;18.68;80.88;98051.00;5049690;28;20682;-83
2023/05/07 07:27:51;;;;;;;4.73;3.13;;;;;;;18.81;75.63;98029.13;5051703;28;20236;-83
2023/05/07 07:30:17;;;;;;;3.93;2.83;;;;;;;18.92;77.93;98044.91;5051132;28;20209;-83
2023/05/07 07:32:44;;;;;;;2.60;2.40;;;;;;;18.86;77.82;98040.19;5051516;28;20290;-83
2023/05/07 07:35:10;;;;;;;2.57;2.37;;;;;;;18.87;76.93;98037.38;5051521;28;20229;-83
2023/05/07 07:37:37;;;;;;;2.43;2.23;;;;;;;19.01;76.50;98035.94;5051684;28;20595;-83
2023/05/07 07:40:04;;;;;;;3.87;2.87;;;;;;;19.15;75.68;98035.31;5051445;28;20215;-82
2023/05/07 07:42:32;;;;;;;2.70;2.50;;;;;;;19.32;74.73;98037.94;5051637;28;20215;-83
2023/05/07 07:44:58;;;;;;;3.27;2.70;;;;;;;19.49;73.19;98030.75;5051271;28;20212;-83
2023/05/07 07:47:25;;;;;;;3.27;2.97;;;;;;;19.74;73.11;98038.69;5051233;28;20228;-83
2023/05/07 07:49:51;;;;;;;3.50;2.70;;;;;;;20.08;70.21;98028.72;5050803;28;20670;-83
2023/05/07 07:52:19;;;;;;;3.23;2.30;;;;;;;20.26;71.69;98044.66;5051017;28;20302;-83
2023/05/07 07:54:45;;;;;;;2.60;2.40;;;;;;;20.32;72.41;98050.19;5051073;28;20740;-83
2023/05/07 07:57:12;;;;;;;4.00;3.30;;;;;;;20.34;71.65;98048.16;5050929;28;20242;-83
2023/05/07 07:59:42;;;;;;;3.17;2.70;;;;;;;20.16;71.08;98044.81;5050770;28;20767;-83
2023/05/07 08:02:09;;;;;;;2.60;2.40;;;;;;;20.04;70.93;98046.13;5050699;28;20721;-81
2023/05/07 08:04:37;;;;;;;3.70;2.93;;;;;;;19.94;70.17;98037.38;5050641;28;20213;-83
2023/05/07 08:07:03;;;;;;;2.97;2.77;;;;;;;19.93;71.30;98038.38;5050658;28;20232;-82
2023/05/07 08:09:30;;;;;;;4.40;3.00;;;;;;;20.03;70.26;98030.19;5050335;28;20208;-83
2023/05/07 08:11:56;;;;;;;2.63;2.43;;;;;;;20.06;71.24;98052.19;5050092;28;20211;-83
2023/05/07 08:14:23;;;;;;;3.23;2.53;;;;;;;20.08;70.19;98033.25;5050863;28;20219;-83
2023/05/07 08:16:51;;;;;;;2.87;2.57;;;;;;;20.10;69.79;98040.13;5050655;28;20231;-83
2023/05/07 08:19:17;;;;;;;2.90;2.70;;;;;;;20.18;70.37;98042.78;5050417;28;20215;-83
2023/05/07 08:21:44;;;;;;;3.37;2.57;;;;;;;20.26;70.12;98050.00;5050130;28;20217;-82
2023/05/07 08:24:11;;;;;;;2.70;2.50;;;;;;;20.29;71.48;98050.50;5047923;28;20678;-82
2023/05/07 08:26:39;;;;;;;3.13;2.43;;;;;;;20.38;69.14;98037.94;5047836;28;20227;-82
2023/05/07 08:29:05;;;;;;;2.60;2.40;;;;;;;20.48;70.29;98044.78;5047771;28;20444;-82
2023/05/07 08:31:32;;;;;;;3.00;2.40;;;;;;;20.49;70.93;98051.84;5049158;28;20211;-82
2023/05/07 08:34:00;;;;;;;2.80;2.60;;;;;;;20.60;71.94;98056.84;5050134;28;20212;-82
2023/05/07 08:36:51;;;;;;;2.70;2.50;;;;;;;20.61;69.02;98036.22;5050493;28;20234;-84
2023/05/07 08:39:17;;;;;;;3.50;2.77;;;;;;;20.62;66.38;98019.94;5050311;28;20216;-82
2023/05/07 08:41:45;;;;;;;2.90;2.60;;;;;;;20.67;67.63;98033.69;5050199;28;20211;-82
2023/05/07 08:44:14;;;;;;;3.70;2.73;;;;;;;20.77;64.20;98017.38;5050176;28;20361;-82
2023/05/07 08:46:43;;;;;;;4.03;3.07;;;;;;;20.84;63.40;98016.50;5050539;28;20227;-82
2023/05/07 08:49:11;;;;;;;4.17;3.00;;;;;;;20.89;63.79;98018.72;5049948;28;20208;-82
2023/05/07 08:51:38;;;;;;;2.73;2.50;;;;;;;20.97;64.86;98027.59;5050267;28;20219;-82
2023/05/07 08:54:06;;;;;;;2.57;2.33;;;;;;;21.15;63.81;98027.38;5050086;28;20212;-82
2023/05/07 08:56:33;;;;;;;4.20;3.33;;;;;;;21.41;68.13;98055.66;5049963;28;20232;-84
2023/05/07 08:58:59;;;;;;;3.20;2.87;;;;;;;21.65;70.62;98057.38;5083029;22;20230;-82
2023/05/07 09:01:26;;;;;;;3.43;2.80;;;;;;;21.70;65.88;98031.63;5068978;28;20208;-82
2023/05/07 09:03:54;;;;;;;3.50;3.20;;;;;;;21.81;61.22;98003.47;5070735;28;20216;-82
2023/05/07 09:06:22;;;;;;;4.85;3.40;;;;;;;22.12;62.26;98029.31;5070388;28;20442;-82
2023/05/07 09:08:52;;;;;;;4.07;3.67;;;;;;;22.07;58.99;97999.41;5070616;28;20231;-80
2023/05/07 09:11:21;;;;;;;5.43;3.60;;;;;;;22.00;58.54;97997.66;5069439;28;20207;-79
2023/05/07 09:13:48;;;;;;;3.37;2.83;;;;;;;22.11;59.25;98003.44;5071044;28;20215;-80
2023/05/07 09:16:15;;;;;;;4.50;3.13;;;;;;;22.35;60.86;98019.38;5071061;28;20235;-76
2023/05/07 09:18:43;;;;;;;3.37;3.07;;;;;;;22.54;61.50;98018.88;5071346;28;20250;-82
2023/05/07 09:21:11;;;;;;;3.87;3.27;;;;;;;22.53;58.09;97984.91;5071150;28;20719;-81
2023/05/07 09:23:40;;;;;;;3.63;3.20;;;;;;;22.64;57.33;97980.91;5073262;28;20265;-80
2023/05/07 09:26:11;;;;;;;2.90;2.70;;;;;;;22.67;59.00;97996.72;5077045;28;20230;-80
2023/05/07 09:28:39;;;;;;;4.27;3.70;;;;;;;22.90;57.16;97974.03;5079385;28;20231;-79
2023/05/07 09:31:06;;;;;;;4.13;3.10;;;;;;;22.93;57.70;97976.34;5078048;28;20561;-81
2023/05/07 09:33:32;;;;;;;3.80;3.30;;;;;;;22.99;59.95;97996.34;5078783;28;20214;-82
2023/05/07 09:35:59;;;;;;;3.40;2.90;;;;;;;23.07;60.35;97994.38;5080268;28;20227;-81
2023/05/07 09:38:28;;;;;;;3.13;2.87;;;;;;;23.20;62.70;98008.06;5074577;28;20230;-82
2023/05/07 09:41:04;;;;;;;4.07;3.03;;;;;;;23.28;62.45;98007.97;5072749;28;20261;-82
2023/05/07 09:43:34;;;;;;;3.73;3.20;;;;;;;23.29;58.33;97974.56;5075090;28;20294;-83
2023/05/07 09:46:04;;;;;;;4.57;3.17;;;;;;;23.20;57.22;97972.16;5073590;28;20253;-82
2023/05/07 09:48:31;;;;;;;3.90;3.17;;;;;;;23.33;65.43;98026.25;5071501;28;20224;-82
2023/05/07 09:51:02;;;;;;;3.93;3.00;;;;;;;23.40;64.29;98014.53;5070986;28;20215;-83
2023/05/07 09:53:30;;;;;;;3.20;2.90;;;;;;;23.48;62.26;97997.41;5071538;28;20211;-83
2023/05/07 09:55:58;;;;;;;3.03;2.70;;;;;;;23.43;58.11;97962.06;5074340;28;20687;-83
2023/05/07 09:58:27;;;;;;;3.17;2.87;;;;;;;23.50;61.73;97996.22;5074374;28;20620;-83
2023/05/07 10:00:54;;;;;;;3.43;3.07;;;;;;;23.48;63.30;98003.63;5071276;28;20207;-83
2023/05/07 10:03:22;;;;;;;2.80;2.60;;;;;;;23.59;64.95;98016.63;5071414;28;20238;-81
2023/05/07 10:05:50;;;;;;;3.00;2.53;;;;;;;23.60;59.75;97982.41;5071618;28;20191;-81
2023/05/07 10:08:16;;;;;;;3.40;3.10;;;;;;;23.65;56.42;97961.09;5072744;28;20322;-82
2023/05/07 10:10:43;;;;;;;6.30;3.00;;;;;;;23.66;61.08;97995.13;5073819;28;20239;-82
2023/05/07 10:13:11;;;;;;;3.13;2.83;;;;;;;23.58;55.18;97928.63;5074250;28;20203;-83
2023/05/07 10:15:39;;;;;;;3.97;2.77;;;;;;;23.50;59.48;97969.22;5074416;28;20239;-85
2023/05/07 10:18:07;;;;;;;3.13;2.83;;;;;;;23.59;55.15;97930.28;5074087;28;20227;-85
2023/05/07 10:20:35;;;;;;;3.67;2.60;;;;;;;23.45;56.29;97946.53;5074445;28;20214;-83
2023/05/07 10:23:04;;;;;;;2.90;2.70;;;;;;;23.46;61.65;97977.91;5074215;28;20253;-86
2023/05/07 10:25:33;;;;;;;2.80;2.60;;;;;;;23.56;62.06;97979.25;5074313;28;20200;-85
2023/05/07 10:28:02;;;;;;;2.97;2.67;;;;;;;23.74;62.14;97976.97;5074307;28;20223;-85
2023/05/07 10:30:39;;;;;;;2.50;2.30;;;;;;;23.88;60.31;97969.84;5074310;28;20478;-85
2023/05/07 10:33:11;;;;;;;3.63;2.57;;;;;;;24.07;61.99;97977.31;5073877;28;20213;-85
2023/05/07 10:35:41;;;;;;;2.50;2.30;;;;;;;24.15;58.60;97952.88;5074703;28;20594;-85
2023/05/07 10:38:07;;;;;;;2.50;2.30;;;;;;;24.19;57.79;97949.59;5075103;28;20300;-85
2023/05/07 10:40:34;;;;;;;2.90;2.70;;;;;;;24.20;58.45;97956.66;5074423;28;20328;-85
2023/05/07 10:43:03;;;;;;;2.77;2.50;;;;;;;24.23;60.88;97967.06;5075233;28;20207;-85
2023/05/07 10:45:30;;;;;;;3.17;2.60;;;;;;;24.02;59.83;97958.16;5074226;28;20215;-85
2023/05/07 10:48:13;;;;;;;2.60;2.40;;;;;;;23.91;59.18;97955.97;5074604;28;20227;-85
2023/05/07 10:50:40;;;;;;;3.20;2.90;;;;;;;23.77;60.80;97968.47;5074335;28;20214;-85
2023/05/07 10:53:29;;;;;;;3.10;2.57;;;;;;;23.68;64.79;97988.53;5073371;28;20298;-85
2023/05/07 10:56:29;;;;;;;2.57;2.37;;;;;;;23.65;63.66;97983.50;5073260;28;20697;-85
2023/05/07 10:58:56;;;;;;;3.67;2.40;;;;;;;23.69;59.08;97952.41;5073106;28;20236;-85
2023/05/07 11:01:52;;;;;;;2.60;2.40;;;;;;;23.86;60.17;97952.97;5072039;28;20332;-84
2023/05/07 11:04:26;;;;;;;4.23;2.77;;;;;;;23.92;57.75;97934.19;5071074;28;20597;-85
2023/05/07 11:07:30;;;;;;;2.63;2.43;;;;;;;23.90;61.62;97965.94;5070287;28;20240;-85
2023/05/07 11:10:03;;;;;;;2.60;2.40;;;;;;;23.80;63.21;97965.41;5069925;28;20206;-85
2023/05/07 11:12:52;;;;;;;2.77;2.50;;;;;;;23.74;61.59;97960.78;5072412;28;20690;-85
2023/05/07 11:15:52;;;;;;;3.13;2.60;;;;;;;23.67;61.71;97953.63;5073181;28;20230;-85
2023/05/07 11:18:19;;;;;;;2.23;2.13;;;;;;;23.63;63.35;97953.19;5010739;28;20256;-84
2023/05/07 11:20:52;;;;;;;4.13;2.70;;;;;;;23.74;59.54;97944.56;5010428;28;20209;-84
2023/05/07 11:23:58;;;;;;;3.23;2.77;;;;;;;23.67;57.66;97932.88;5040787;28;20233;-85
2023/05/07 11:26:26;;;;;;;2.63;2.40;;;;;;;23.50;59.78;97942.25;5072462;28;20598;-84
2023/05/07 11:28:53;;;;;;;4.23;2.40;;;;;;;23.44;59.17;97934.91;5072224;28;20231;-85
2023/05/07 11:31:23;;;;;;;2.50;2.30;;;;;;;23.53;57.90;97933.75;5072246;28;20207;-84
2023/05/07 11:33:50;;;;;;;2.47;2.27;;;;;;;23.52;57.18;97924.00;5073744;28;20592;-84